Time;durP1;ratioP1;P1;durP2;ratioP2;P2;SDS_P1;SDS_P2;PMS_P1;PMS_P2;Temp;Humidity;BMP_temperature;BMP_pressure;BME280_temperature;BME280_humidity;BME280_pressure;Samples;Min_cycle;Max_cycle;Signal;HPM_P1;HPM_P2
2021/11/10 00:01:37;;;;;;;4.22;2.38;;;8.00;95.20;;;;;;5067974;28;20072;-74
2021/11/10 00:04:02;;;;;;;6.32;2.33;;;7.90;95.50;;;;;;5056716;28;20090;-74
2021/11/10 00:06:28;;;;;;;6.32;2.63;;;8.00;95.60;;;;;;5061874;28;20479;-75
2021/11/10 00:08:54;;;;;;;5.93;2.50;;;7.90;95.60;;;;;;5052192;28;20029;-75
2021/11/10 00:11:20;;;;;;;5.80;2.42;;;8.00;95.60;;;;;;5056865;28;20029;-75
2021/11/10 00:13:46;;;;;;;8.30;2.50;;;8.00;95.40;;;;;;5056378;28;20076;-74
2021/11/10 00:16:11;;;;;;;6.90;2.55;;;8.00;95.80;;;;;;5065158;28;20074;-74
2021/11/10 00:18:37;;;;;;;6.00;2.97;;;8.00;95.70;;;;;;5071228;28;20020;-74
2021/11/10 00:21:04;;;;;;;4.97;2.22;;;8.00;95.40;;;;;;5063366;28;20040;-74
2021/11/10 00:23:30;;;;;;;5.55;2.80;;;8.00;95.70;;;;;;5050075;28;20391;-74
2021/11/10 00:25:56;;;;;;;4.75;2.40;;;8.00;95.70;;;;;;5051657;28;20029;-75
2021/11/10 00:28:21;;;;;;;9.05;3.35;;;8.00;96.00;;;;;;5051572;28;20025;-74
2021/11/10 00:30:47;;;;;;;4.60;2.47;;;8.00;95.60;;;;;;5060179;28;20097;-74
2021/11/10 00:33:13;;;;;;;6.70;3.30;;;8.00;95.80;;;;;;5050635;28;20482;-74
2021/11/10 00:35:39;;;;;;;7.13;2.05;;;8.00;95.30;;;;;;5060583;28;20040;-75
2021/11/10 00:38:04;;;;;;;6.85;2.90;;;8.00;95.30;;;;;;5070879;28;20027;-75
2021/11/10 00:40:30;;;;;;;8.30;2.38;;;8.00;95.70;;;;;;5061709;28;20095;-75
2021/11/10 00:42:56;;;;;;;4.40;1.98;;;8.00;95.30;;;;;;5050095;28;20074;-74
2021/11/10 00:45:22;;;;;;;8.30;2.72;;;8.00;95.40;;;;;;5051230;28;20460;-74
2021/11/10 00:47:47;;;;;;;5.95;2.35;;;8.00;95.30;;;;;;5052147;28;20040;-74
2021/11/10 00:50:14;;;;;;;4.32;2.28;;;8.10;95.30;;;;;;5065911;28;20033;-74
2021/11/10 00:52:39;;;;;;;5.00;2.17;;;8.10;95.00;;;;;;5051203;28;20029;-74
2021/11/10 00:55:06;;;;;;;4.38;2.35;;;8.10;95.10;;;;;;5067786;28;20087;-74
2021/11/10 00:57:31;;;;;;;3.85;2.25;;;8.00;95.10;;;;;;5070814;28;20021;-74
2021/11/10 00:59:57;;;;;;;4.45;2.15;;;8.00;94.90;;;;;;5050876;28;20032;-74
2021/11/10 01:02:23;;;;;;;6.18;2.58;;;8.00;95.10;;;;;;5050887;28;20025;-74
2021/11/10 01:04:48;;;;;;;6.60;3.15;;;8.00;95.00;;;;;;5052427;28;20662;-75
2021/11/10 01:07:14;;;;;;;6.30;2.30;;;8.00;95.00;;;;;;5055323;28;20036;-75
2021/11/10 01:09:42;;;;;;;5.18;2.30;;;8.00;95.20;;;;;;5051059;28;20029;-75
2021/11/10 01:12:10;;;;;;;5.47;2.92;;;8.00;95.10;;;;;;5051253;28;20032;-74
2021/11/10 01:14:36;;;;;;;5.30;2.45;;;8.10;95.40;;;;;;5066842;28;20429;-74
2021/11/10 01:17:03;;;;;;;5.30;2.20;;;8.00;95.50;;;;;;5052138;28;20032;-74
2021/11/10 01:19:28;;;;;;;4.45;2.30;;;8.00;95.50;;;;;;5048711;28;20470;-74
2021/11/10 01:21:54;;;;;;;4.25;2.30;;;8.00;95.90;;;;;;5061758;28;20028;-75
2021/11/10 01:24:20;;;;;;;4.32;2.40;;;8.10;95.20;;;;;;5067073;28;20028;-75
2021/11/10 01:26:46;;;;;;;10.90;2.63;;;8.10;95.30;;;;;;5054985;28;20028;-74
2021/11/10 01:29:11;;;;;;;4.53;2.17;;;8.10;95.10;;;;;;5048368;28;20035;-74
2021/11/10 01:31:37;;;;;;;5.18;2.30;;;8.20;94.90;;;;;;5049076;28;20483;-74
2021/11/10 01:34:07;;;;;;;5.40;2.40;;;8.20;95.00;;;;;;5052504;28;20407;-74
2021/11/10 01:36:34;;;;;;;5.65;2.25;;;8.20;95.20;;;;;;5050406;28;20112;-74
2021/11/10 01:39:00;;;;;;;5.18;2.00;;;8.20;95.30;;;;;;5052784;28;20025;-74
2021/11/10 01:41:26;;;;;;;3.97;2.03;;;8.10;95.00;;;;;;5070531;28;20021;-74
2021/11/10 01:43:52;;;;;;;4.78;1.95;;;8.20;94.70;;;;;;5070440;28;20034;-74
2021/11/10 01:46:17;;;;;;;4.32;2.13;;;8.20;95.00;;;;;;5072644;28;20033;-75
2021/11/10 01:48:43;;;;;;;5.93;2.47;;;8.20;95.10;;;;;;5063481;28;20032;-74
2021/11/10 01:51:09;;;;;;;5.95;1.92;;;8.20;95.00;;;;;;5071956;28;20543;-75
2021/11/10 01:53:35;;;;;;;5.15;2.22;;;8.10;95.10;;;;;;5068112;28;20024;-74
2021/11/10 01:56:02;;;;;;;4.75;1.67;;;8.10;94.90;;;;;;5057523;28;20041;-74
2021/11/10 01:58:28;;;;;;;4.55;2.38;;;8.20;94.80;;;;;;5073030;28;20033;-74
2021/11/10 02:00:54;;;;;;;3.55;1.80;;;8.30;94.80;;;;;;5073798;28;20107;-74
2021/11/10 02:03:20;;;;;;;5.82;2.40;;;8.30;94.60;;;;;;5059176;28;20040;-74
2021/11/10 02:05:47;;;;;;;5.95;2.03;;;8.30;94.50;;;;;;5066996;28;20046;-74
2021/11/10 02:08:13;;;;;;;5.72;2.42;;;8.40;93.90;;;;;;5071718;28;20021;-74
2021/11/10 02:10:39;;;;;;;4.70;2.05;;;8.40;94.40;;;;;;5073532;28;20016;-75
2021/11/10 02:13:07;;;;;;;3.88;1.83;;;8.40;94.00;;;;;;5058329;28;20060;-74
2021/11/10 02:15:33;;;;;;;4.28;1.90;;;8.40;94.00;;;;;;5068235;28;20360;-75
2021/11/10 02:18:02;;;;;;;4.35;2.15;;;8.40;94.20;;;;;;5053873;28;20033;-74
2021/11/10 02:20:34;;;;;;;3.72;1.80;;;8.40;93.80;;;;;;5054097;28;20043;-74
2021/11/10 02:23:01;;;;;;;4.53;2.10;;;8.50;94.00;;;;;;5053542;28;20056;-74
2021/11/10 02:25:29;;;;;;;4.72;2.10;;;8.50;93.60;;;;;;5067147;28;20162;-75
2021/11/10 02:27:59;;;;;;;4.35;1.70;;;8.50;94.00;;;;;;5064202;28;20040;-75
2021/11/10 02:30:26;;;;;;;3.60;1.98;;;8.60;93.60;;;;;;5059031;28;20031;-74
2021/11/10 02:32:59;;;;;;;5.85;1.92;;;8.60;93.60;;;;;;5058430;28;20033;-75
2021/11/10 02:35:28;;;;;;;4.13;1.80;;;8.60;93.60;;;;;;5071548;28;20068;-74
2021/11/10 02:38:05;;;;;;;6.63;1.83;;;8.60;93.60;;;;;;5053533;28;20037;-74
2021/11/10 02:40:31;;;;;;;4.80;1.92;;;8.60;93.60;;;;;;5053561;28;20095;-74
2021/11/10 02:42:58;;;;;;;4.38;2.03;;;8.60;93.50;;;;;;5051851;28;20033;-74
2021/11/10 02:45:24;;;;;;;5.05;2.50;;;8.50;93.80;;;;;;5059297;28;20082;-75
2021/11/10 02:47:51;;;;;;;3.58;1.65;;;8.50;93.90;;;;;;5063389;28;20033;-75
2021/11/10 02:50:17;;;;;;;6.47;2.50;;;8.60;93.30;;;;;;5053433;28;20032;-75
2021/11/10 02:52:42;;;;;;;4.78;2.53;;;8.60;93.30;;;;;;5052760;28;20029;-74
2021/11/10 02:55:08;;;;;;;5.57;2.00;;;8.60;93.30;;;;;;5052995;28;20475;-74
2021/11/10 02:57:34;;;;;;;4.65;1.92;;;8.50;93.50;;;;;;5061794;28;20040;-74
2021/11/10 03:00:01;;;;;;;3.85;1.92;;;8.50;93.50;;;;;;5077078;28;20032;-74
2021/11/10 03:02:29;;;;;;;5.60;1.90;;;8.40;93.80;;;;;;5060272;28;20104;-75
2021/11/10 03:04:56;;;;;;;6.20;1.75;;;8.50;93.40;;;;;;5062118;28;20029;-74
2021/11/10 03:07:22;;;;;;;3.15;1.50;;;8.60;93.30;;;;;;5062284;28;20025;-74
2021/11/10 03:09:48;;;;;;;4.88;1.88;;;8.60;93.40;;;;;;5052475;28;20478;-74
2021/11/10 03:12:15;;;;;;;5.18;1.98;;;8.60;93.40;;;;;;5066923;28;20039;-74
2021/11/10 03:14:43;;;;;;;4.43;1.73;;;8.60;93.50;;;;;;5074944;28;20071;-75
2021/11/10 03:17:11;;;;;;;4.65;1.80;;;8.50;93.50;;;;;;5056344;28;20029;-75
2021/11/10 03:19:37;;;;;;;6.68;1.75;;;8.50;93.90;;;;;;5059456;28;20493;-74
2021/11/10 03:22:05;;;;;;;4.65;2.03;;;8.50;93.60;;;;;;5069211;28;20364;-74
2021/11/10 03:24:31;;;;;;;5.10;2.00;;;8.50;93.80;;;;;;5070342;28;20029;-74
2021/11/10 03:26:57;;;;;;;3.80;1.88;;;8.50;93.80;;;;;;5059771;28;20039;-74
2021/11/10 03:29:23;;;;;;;4.75;2.30;;;8.50;93.60;;;;;;5050610;28;20031;-74
2021/11/10 03:31:49;;;;;;;4.20;1.90;;;8.50;93.50;;;;;;5050152;28;20103;-75
2021/11/10 03:34:15;;;;;;;4.63;1.88;;;8.50;93.60;;;;;;5053865;28;20033;-75
2021/11/10 03:36:41;;;;;;;3.60;1.52;;;8.60;93.30;;;;;;5053938;28;20483;-75
2021/11/10 03:39:11;;;;;;;4.78;1.92;;;8.60;93.40;;;;;;5057698;28;20096;-74
2021/11/10 03:41:37;;;;;;;5.18;2.03;;;8.60;93.70;;;;;;5051822;28;20037;-74
2021/11/10 03:44:04;;;;;;;5.35;2.17;;;8.60;93.40;;;;;;5052449;28;20029;-75
2021/11/10 03:46:30;;;;;;;6.68;1.90;;;8.60;93.20;;;;;;5051689;28;20033;-74
2021/11/10 03:48:56;;;;;;;3.42;1.80;;;8.60;93.30;;;;;;5052072;28;20483;-75
2021/11/10 03:51:21;;;;;;;4.68;1.38;;;8.70;93.10;;;;;;5052224;28;20025;-75
2021/11/10 03:53:48;;;;;;;5.85;1.92;;;8.70;93.10;;;;;;5051515;28;20029;-75
2021/11/10 03:56:14;;;;;;;6.47;2.05;;;8.60;93.50;;;;;;5065084;28;20028;-74
2021/11/10 03:58:40;;;;;;;4.43;2.00;;;8.50;95.40;;;;;;5050434;28;20040;-74
2021/11/10 04:01:06;;;;;;;3.80;1.52;;;8.40;95.30;;;;;;5049944;28;20515;-75
2021/11/10 04:03:33;;;;;;;3.92;1.80;;;8.30;95.40;;;;;;5049865;28;20391;-76
2021/11/10 04:05:59;;;;;;;3.10;1.30;;;8.30;95.30;;;;;;5048696;28;20017;-75
2021/11/10 04:08:26;;;;;;;3.88;1.65;;;8.20;96.30;;;;;;5055251;28;20024;-76
2021/11/10 04:10:52;;;;;;;6.25;2.53;;;8.20;96.10;;;;;;5068623;28;20094;-75
2021/11/10 04:13:18;;;;;;;3.30;1.52;;;8.20;95.90;;;;;;5054104;28;20129;-76
2021/11/10 04:15:44;;;;;;;4.32;1.70;;;8.20;96.40;;;;;;5064567;28;20098;-75
2021/11/10 04:18:10;;;;;;;4.13;1.70;;;8.20;95.90;;;;;;5055516;28;20027;-75
2021/11/10 04:20:36;;;;;;;3.22;1.60;;;8.40;94.40;;;;;;5045420;28;20562;-75
2021/11/10 04:23:02;;;;;;;3.22;1.60;;;8.50;93.70;;;;;;5046957;28;20036;-75
2021/11/10 04:25:28;;;;;;;4.72;2.08;;;8.60;93.80;;;;;;5047626;28;20040;-76
2021/11/10 04:27:53;;;;;;;3.67;1.70;;;8.60;93.50;;;;;;5047563;28;20617;-76
2021/11/10 04:30:19;;;;;;;3.70;1.92;;;8.60;93.80;;;;;;5046897;28;20039;-75
2021/11/10 04:32:46;;;;;;;6.80;1.80;;;8.60;93.70;;;;;;5057914;28;20117;-75
2021/11/10 04:35:13;;;;;;;4.55;1.60;;;8.50;94.20;;;;;;5046954;28;20495;-75
2021/11/10 04:37:39;;;;;;;3.25;1.70;;;8.60;94.00;;;;;;5058685;28;20047;-75
2021/11/10 04:40:08;;;;;;;3.17;1.85;;;8.60;93.30;;;;;;5066678;28;20078;-75
2021/11/10 04:42:34;;;;;;;4.45;1.83;;;8.70;93.20;;;;;;5059030;28;20367;-76
2021/11/10 04:45:06;;;;;;;3.15;1.42;;;8.60;93.40;;;;;;5058090;28;20086;-74
2021/11/10 04:47:32;;;;;;;3.60;1.45;;;8.70;93.60;;;;;;5051693;28;20025;-75
2021/11/10 04:49:58;;;;;;;3.70;1.58;;;8.70;93.10;;;;;;5066830;28;20077;-75
2021/11/10 04:52:25;;;;;;;4.38;1.83;;;8.70;93.00;;;;;;5059777;28;20025;-75
2021/11/10 04:54:52;;;;;;;3.85;1.50;;;8.80;92.60;;;;;;5046927;28;20124;-75
2021/11/10 04:57:18;;;;;;;4.35;1.98;;;8.70;93.00;;;;;;5046740;28;20506;-75
2021/11/10 04:59:44;;;;;;;6.10;1.55;;;8.70;93.30;;;;;;5044706;28;20083;-75
2021/11/10 05:04:42;;;;;;;3.90;1.58;;;8.80;93.10;;;;;;5059146;28;20094;-76
2021/11/10 05:07:11;;;;;;;3.13;1.20;;;8.70;93.50;;;;;;5061916;28;20041;-75
2021/11/10 05:09:37;;;;;;;4.45;1.92;;;8.70;93.90;;;;;;5062690;28;20025;-76
2021/11/10 05:12:03;;;;;;;3.22;1.83;;;8.60;94.30;;;;;;5062341;28;20603;-75
2021/11/10 05:14:29;;;;;;;3.45;1.73;;;8.60;93.90;;;;;;5050243;28;20052;-75
2021/11/10 05:16:55;;;;;;;6.13;1.98;;;8.80;92.70;;;;;;5053267;28;20033;-76
2021/11/10 05:19:20;;;;;;;3.15;1.50;;;8.90;92.70;;;;;;5056173;28;20059;-75
2021/11/10 05:21:46;;;;;;;3.17;1.52;;;8.90;92.90;;;;;;5080367;28;20051;-75
2021/11/10 05:24:12;;;;;;;3.58;1.60;;;8.80;93.50;;;;;;5067915;28;20123;-75
2021/11/10 05:26:38;;;;;;;3.60;1.73;;;8.70;93.80;;;;;;5053798;28;20524;-75
2021/11/10 05:29:05;;;;;;;4.60;1.20;;;8.60;93.90;;;;;;5046248;28;20499;-76
2021/11/10 05:31:31;;;;;;;4.43;1.77;;;8.60;95.00;;;;;;5046323;28;20032;-75
2021/11/10 05:33:57;;;;;;;5.00;1.45;;;8.60;94.80;;;;;;5059690;28;20028;-75
2021/11/10 05:36:23;;;;;;;3.58;1.55;;;8.60;94.20;;;;;;5060366;28;20037;-75
2021/11/10 05:38:49;;;;;;;4.25;1.55;;;8.50;94.80;;;;;;5062982;28;20081;-75
2021/11/10 05:41:15;;;;;;;2.95;1.70;;;8.70;93.50;;;;;;5048806;28;20029;-76
2021/11/10 05:43:41;;;;;;;5.00;1.83;;;8.60;93.50;;;;;;5047902;28;20386;-75
2021/11/10 05:46:07;;;;;;;6.45;1.67;;;8.70;92.90;;;;;;5048206;28;20032;-75
2021/11/10 05:48:33;;;;;;;5.25;2.33;;;8.80;93.00;;;;;;5047474;28;20021;-76
2021/11/10 05:50:59;;;;;;;3.92;1.65;;;8.80;93.40;;;;;;5047714;28;20372;-75
2021/11/10 05:53:24;;;;;;;3.22;1.67;;;8.70;93.60;;;;;;5050889;28;20043;-75
2021/11/10 05:55:53;;;;;;;3.90;1.65;;;8.60;94.10;;;;;;5057171;28;20494;-75
2021/11/10 05:58:20;;;;;;;2.25;1.13;;;8.60;94.40;;;;;;5047514;28;20384;-75
2021/11/10 06:00:46;;;;;;;3.67;1.75;;;8.50;94.20;;;;;;5047048;28;20029;-76
2021/11/10 06:03:12;;;;;;;4.25;1.83;;;8.50;93.60;;;;;;5047989;28;20023;-75
2021/11/10 06:05:38;;;;;;;5.60;1.52;;;8.60;93.30;;;;;;5046852;28;20037;-75
2021/11/10 06:08:03;;;;;;;4.53;1.92;;;8.50;93.50;;;;;;5047862;28;20025;-75
2021/11/10 06:10:29;;;;;;;3.38;1.83;;;8.60;93.10;;;;;;5046354;28;20032;-76
2021/11/10 06:12:55;;;;;;;4.93;1.98;;;8.60;93.00;;;;;;5058280;28;20049;-76
2021/11/10 06:15:22;;;;;;;3.33;1.60;;;8.60;93.30;;;;;;5062169;28;20036;-76
2021/11/10 06:17:48;;;;;;;3.10;1.48;;;8.60;93.10;;;;;;5046972;28;20029;-74
2021/11/10 06:20:14;;;;;;;3.55;1.60;;;8.50;93.40;;;;;;5047395;28;20040;-75
2021/11/10 06:22:41;;;;;;;4.10;1.40;;;8.40;94.60;;;;;;5046737;28;20024;-75
2021/11/10 06:25:07;;;;;;;3.45;1.52;;;8.20;95.70;;;;;;5047381;28;20083;-75
2021/11/10 06:27:33;;;;;;;12.32;2.63;;;8.00;95.70;;;;;;5046472;28;20138;-75
2021/11/10 06:29:59;;;;;;;6.38;1.88;;;8.10;95.10;;;;;;5058008;28;20478;-75
2021/11/10 06:32:25;;;;;;;3.80;1.77;;;8.00;95.40;;;;;;5061634;28;20035;-77
2021/11/10 06:34:51;;;;;;;3.40;1.90;;;8.00;95.50;;;;;;5064002;28;20052;-76
2021/11/10 06:37:16;;;;;;;3.08;1.40;;;8.30;95.10;;;;;;5059413;28;20031;-75
2021/11/10 06:39:42;;;;;;;5.00;1.85;;;8.40;96.90;;;;;;5049904;28;20029;-75
2021/11/10 06:42:09;;;;;;;5.38;2.15;;;8.00;95.70;;;;;;5046218;28;20585;-75
2021/11/10 06:44:35;;;;;;;5.07;1.65;;;8.00;95.80;;;;;;5045812;28;20024;-75
2021/11/10 06:47:01;;;;;;;4.45;1.80;;;7.90;96.80;;;;;;5050491;28;20128;-76
2021/11/10 06:49:28;;;;;;;4.75;2.10;;;7.90;96.70;;;;;;5065659;28;20036;-75
2021/11/10 06:51:54;;;;;;;6.95;5.30;;;7.90;96.60;;;;;;5065586;28;20100;-76
2021/11/10 06:54:21;;;;;;;6.15;3.65;;;8.00;96.10;;;;;;5073264;28;20064;-76
2021/11/10 06:56:49;;;;;;;4.45;1.75;;;8.10;96.40;;;;;;5065568;28;20036;-76
2021/11/10 06:59:18;;;;;;;2.80;1.33;;;8.20;95.00;;;;;;5065554;28;20078;-76
2021/11/10 07:01:44;;;;;;;4.50;1.90;;;8.30;95.50;;;;;;5066082;28;20087;-76
2021/11/10 07:04:10;;;;;;;3.85;1.92;;;8.30;95.70;;;;;;5066485;28;20029;-76
2021/11/10 07:06:36;;;;;;;3.97;2.00;;;8.40;95.90;;;;;;5065444;28;20570;-76
2021/11/10 07:09:06;;;;;;;5.47;2.38;;;8.40;96.30;;;;;;5065382;28;20059;-76
2021/11/10 07:11:34;;;;;;;5.75;2.08;;;8.40;96.50;;;;;;5064991;28;20024;-76
2021/11/10 07:14:02;;;;;;;5.25;2.13;;;8.30;96.50;;;;;;5064751;28;20048;-76
2021/11/10 07:16:28;;;;;;;4.95;2.25;;;8.20;97.50;;;;;;5056191;28;20826;-76
2021/11/10 07:18:58;;;;;;;6.45;2.22;;;8.20;97.80;;;;;;5084191;28;20036;-76
2021/11/10 07:21:25;;;;;;;5.60;2.63;;;8.30;96.50;;;;;;5083940;28;20358;-76
2021/11/10 07:23:52;;;;;;;6.78;2.72;;;8.40;96.20;;;;;;5083221;28;20028;-76
2021/11/10 07:26:18;;;;;;;8.18;2.65;;;8.50;97.10;;;;;;5083901;28;20490;-74
2021/11/10 07:28:45;;;;;;;6.85;2.15;;;8.30;97.70;;;;;;5067453;28;20041;-76
2021/11/10 07:31:10;;;;;;;4.47;1.90;;;8.20;97.60;;;;;;5063535;28;20103;-76
2021/11/10 07:33:36;;;;;;;5.82;1.77;;;8.30;95.50;;;;;;5062946;28;20111;-76
2021/11/10 07:36:02;;;;;;;7.45;2.00;;;8.60;94.40;;;;;;5064658;28;20078;-76
2021/11/10 07:38:28;;;;;;;2.70;1.48;;;8.70;94.30;;;;;;5064957;28;20040;-76
2021/11/10 07:40:55;;;;;;;7.57;2.60;;;8.60;94.50;;;;;;5063458;28;20075;-77
2021/11/10 07:43:24;;;;;;;4.32;1.92;;;8.70;94.10;;;;;;5065395;28;20073;-77
2021/11/10 07:45:56;;;;;;;7.00;1.92;;;8.60;94.30;;;;;;5064675;28;20086;-76
2021/11/10 07:48:22;;;;;;;5.95;2.05;;;8.60;93.80;;;;;;5064246;28;20032;-77
2021/11/10 07:50:48;;;;;;;4.03;1.50;;;8.60;94.30;;;;;;5064156;28;20497;-77
2021/11/10 07:53:14;;;;;;;4.93;1.85;;;8.60;94.00;;;;;;5074308;28;20028;-76
2021/11/10 07:55:40;;;;;;;6.43;1.92;;;8.50;94.60;;;;;;5084657;28;20093;-76
2021/11/10 07:58:08;;;;;;;5.93;2.05;;;8.60;94.50;;;;;;5084086;28;20463;-76
2021/11/10 08:00:38;;;;;;;3.22;1.80;;;8.50;95.00;;;;;;5085061;28;20028;-78
2021/11/10 08:03:04;;;;;;;4.45;2.00;;;8.40;95.60;;;;;;5076459;28;20033;-80
2021/11/10 08:05:30;;;;;;;7.90;2.17;;;8.30;96.40;;;;;;5064222;28;20528;-76
2021/11/10 08:07:56;;;;;;;5.13;2.10;;;8.10;97.20;;;;;;5063927;28;20058;-75
2021/11/10 08:10:22;;;;;;;5.15;1.70;;;8.00;97.00;;;;;;5063281;28;20881;-77
2021/11/10 08:12:48;;;;;;;5.05;1.52;;;8.10;97.70;;;;;;5066835;28;20121;-76
2021/11/10 08:15:15;;;;;;;2.92;1.52;;;8.20;95.90;;;;;;5085905;28;20079;-76
2021/11/10 08:17:43;;;;;;;4.78;2.13;;;8.50;96.30;;;;;;5081528;28;20040;-76
2021/11/10 08:20:14;;;;;;;5.70;2.00;;;8.50;96.10;;;;;;5063886;28;20062;-76
2021/11/10 08:22:42;;;;;;;4.82;2.00;;;8.60;96.20;;;;;;5064962;28;20021;-76
2021/11/10 08:25:09;;;;;;;4.25;1.80;;;8.50;97.10;;;;;;5064894;28;20334;-76
2021/11/10 08:27:36;;;;;;;3.30;1.45;;;8.90;93.60;;;;;;5071763;28;20028;-76
2021/11/10 08:30:07;;;;;;;5.40;2.05;;;9.10;93.20;;;;;;5084818;28;20035;-76
2021/11/10 08:32:34;;;;;;;3.45;1.60;;;9.30;93.30;;;;;;5083835;28;20024;-76
2021/11/10 08:35:00;;;;;;;4.90;1.33;;;9.30;93.50;;;;;;5083721;28;20032;-76
2021/11/10 08:37:26;;;;;;;7.38;2.00;;;9.30;92.70;;;;;;5077364;28;20580;-76
2021/11/10 08:39:52;;;;;;;4.80;1.95;;;9.50;92.40;;;;;;5063448;28;20028;-76
2021/11/10 08:42:18;;;;;;;3.50;1.65;;;9.40;92.80;;;;;;5064144;28;20028;-76
2021/11/10 08:44:51;;;;;;;3.47;1.50;;;9.50;92.80;;;;;;5063997;28;20033;-76
2021/11/10 08:47:20;;;;;;;3.17;1.50;;;9.50;92.70;;;;;;5068413;28;20065;-76
2021/11/10 08:49:47;;;;;;;3.63;1.60;;;9.60;92.60;;;;;;5078202;28;20020;-76
2021/11/10 08:52:12;;;;;;;5.72;2.30;;;9.60;92.70;;;;;;5063969;28;20028;-76
2021/11/10 08:54:38;;;;;;;3.65;1.60;;;9.60;92.20;;;;;;5066392;28;20127;-76
2021/11/10 08:57:04;;;;;;;9.13;1.63;;;9.60;92.10;;;;;;5067901;28;20074;-76
2021/11/10 08:59:31;;;;;;;4.25;1.73;;;9.70;92.40;;;;;;5066551;28;20027;-76
2021/11/10 09:01:57;;;;;;;6.78;1.90;;;9.80;92.40;;;;;;5069772;28;20016;-76
2021/11/10 09:04:24;;;;;;;2.53;1.13;;;9.70;92.60;;;;;;5086713;28;20498;-76
2021/11/10 09:06:51;;;;;;;2.95;1.40;;;9.70;92.20;;;;;;5057541;28;20086;-78
2021/11/10 09:09:17;;;;;;;3.63;1.50;;;9.70;92.60;;;;;;5068204;28;20032;-77
2021/11/10 09:11:49;;;;;;;5.55;1.98;;;9.70;92.80;;;;;;5073012;28;20016;-78
2021/11/10 09:14:15;;;;;;;5.63;1.38;;;9.80;92.40;;;;;;5088360;28;20048;-77
2021/11/10 09:16:42;;;;;;;4.60;1.88;;;10.00;92.20;;;;;;5077838;28;20113;-77
2021/11/10 09:19:09;;;;;;;5.90;1.77;;;9.90;92.00;;;;;;5047672;28;20068;-78
2021/11/10 09:21:36;;;;;;;8.05;2.35;;;10.00;92.20;;;;;;5049800;28;20028;-78
2021/11/10 09:24:02;;;;;;;4.13;1.65;;;9.90;92.20;;;;;;5086175;28;20458;-78
2021/11/10 09:26:28;;;;;;;4.78;1.70;;;10.20;91.50;;;;;;5086094;28;20477;-77
2021/11/10 09:28:55;;;;;;;3.15;1.40;;;10.10;91.70;;;;;;5086287;28;20424;-77
2021/11/10 09:31:22;;;;;;;5.50;1.73;;;10.20;91.80;;;;;;5085978;28;20032;-76
2021/11/10 09:33:49;;;;;;;4.82;1.80;;;10.20;91.90;;;;;;5085904;28;20024;-77
2021/11/10 09:36:15;;;;;;;3.65;1.77;;;10.30;91.70;;;;;;5086955;28;20024;-78
2021/11/10 09:38:41;;;;;;;3.50;1.48;;;10.40;91.00;;;;;;5087255;28;20077;-77
2021/11/10 09:41:08;;;;;;;3.45;1.73;;;10.50;91.00;;;;;;5087590;28;20024;-77
2021/11/10 09:43:37;;;;;;;3.08;1.27;;;10.50;91.20;;;;;;5084181;28;20028;-77
2021/11/10 09:46:05;;;;;;;3.88;1.70;;;10.60;90.80;;;;;;5087573;28;20432;-77
2021/11/10 09:48:31;;;;;;;3.00;1.55;;;10.80;90.90;;;;;;5086848;28;20902;-78
2021/11/10 09:50:57;;;;;;;6.65;1.85;;;10.90;90.60;;;;;;5087486;28;20034;-78
2021/11/10 09:53:23;;;;;;;3.28;1.52;;;11.00;90.70;;;;;;5074117;28;20040;-78
2021/11/10 09:55:50;;;;;;;4.50;1.75;;;11.10;91.20;;;;;;5067059;28;20037;-78
2021/11/10 09:58:16;;;;;;;5.93;1.88;;;11.20;91.40;;;;;;5081294;28;20528;-78
2021/11/10 10:00:54;;;;;;;3.25;1.70;;;11.50;91.10;;;;;;5087723;28;20028;-78
2021/11/10 10:03:22;;;;;;;3.78;1.20;;;11.50;90.20;;;;;;5086849;28;20028;-78
2021/11/10 10:05:49;;;;;;;4.07;1.67;;;11.50;88.90;;;;;;5085921;28;20563;-78
2021/11/10 10:08:16;;;;;;;5.20;1.52;;;11.40;89.50;;;;;;5074965;28;20060;-78
2021/11/10 10:10:43;;;;;;;4.88;1.58;;;11.30;90.40;;;;;;5067019;28;20036;-78
2021/11/10 10:13:09;;;;;;;4.28;2.17;;;11.30;90.60;;;;;;5066717;28;20055;-78
2021/11/10 10:15:36;;;;;;;3.25;1.40;;;11.10;91.10;;;;;;5066964;28;20494;-78
2021/11/10 10:18:12;;;;;;;5.80;3.10;;;10.90;91.00;;;;;;5073543;28;20077;-78
2021/11/10 10:20:40;;;;;;;5.72;1.83;;;10.80;90.80;;;;;;5063127;28;20032;-79
2021/11/10 10:23:18;;;;;;;2.97;1.48;;;11.00;90.50;;;;;;5065598;28;20036;-77
2021/11/10 10:25:57;;;;;;;10.00;1.83;;;11.10;90.40;;;;;;5064987;28;20068;-78
2021/11/10 10:28:33;;;;;;;4.18;1.58;;;11.30;90.70;;;;;;5077186;28;20034;-78
2021/11/10 10:31:05;;;;;;;9.45;1.58;;;11.50;90.80;;;;;;5085099;28;20028;-78
2021/11/10 10:33:36;;;;;;;2.92;1.40;;;11.50;90.30;;;;;;5084519;28;20116;-78
2021/11/10 10:36:17;;;;;;;10.75;2.42;;;11.70;90.20;;;;;;5085066;28;20123;-77
2021/11/10 10:38:47;;;;;;;7.03;1.88;;;11.70;91.30;;;;;;5070677;28;20029;-78
2021/11/10 10:41:15;;;;;;;4.75;2.08;;;11.60;91.20;;;;;;5066675;28;20085;-77
2021/11/10 10:43:47;;;;;;;8.07;2.15;;;11.70;91.40;;;;;;5066339;28;20043;-78
2021/11/10 10:46:13;;;;;;;4.88;1.52;;;11.80;91.30;;;;;;5081882;28;20027;-77
2021/11/10 10:48:39;;;;;;;3.50;1.85;;;11.90;91.20;;;;;;5086019;28;20097;-78
2021/11/10 10:51:17;;;;;;;5.07;1.98;;;11.90;90.30;;;;;;5085638;28;20939;-78
2021/11/10 10:53:48;;;;;;;6.40;1.70;;;11.90;91.00;;;;;;5086280;28;20096;-78
2021/11/10 10:56:27;;;;;;;4.53;1.88;;;11.70;90.90;;;;;;5073100;28;20066;-78
2021/11/10 10:59:06;;;;;;;3.40;1.77;;;11.50;90.70;;;;;;5085713;28;20420;-78
2021/11/10 11:01:42;;;;;;;8.95;2.05;;;11.40;91.10;;;;;;5085076;28;20118;-77
2021/11/10 11:04:20;;;;;;;5.78;2.22;;;11.50;91.30;;;;;;5085333;28;20039;-77
2021/11/10 11:06:48;;;;;;;3.60;1.65;;;11.60;91.40;;;;;;5076607;28;20031;-78
2021/11/10 11:09:26;;;;;;;4.50;1.50;;;11.60;90.80;;;;;;5075156;28;20028;-75
2021/11/10 11:12:00;;;;;;;4.72;1.70;;;11.70;91.00;;;;;;5065533;28;20085;-78
2021/11/10 11:14:52;;;;;;;6.72;2.38;;;11.90;91.10;;;;;;5065746;28;20464;-77
2021/11/10 11:17:18;;;;;;;4.88;1.75;;;11.70;91.10;;;;;;5067696;28;20120;-77
2021/11/10 11:19:59;;;;;;;4.40;2.05;;;11.80;91.10;;;;;;5085752;28;20162;-77
2021/11/10 11:22:29;;;;;;;5.65;3.33;;;11.90;91.10;;;;;;5082069;28;20025;-77
2021/11/10 11:24:55;;;;;;;7.60;2.88;;;12.00;91.50;;;;;;5065575;28;20021;-77
2021/11/10 11:27:25;;;;;;;4.57;2.35;;;12.00;91.40;;;;;;5051039;28;20528;-77
2021/11/10 11:30:14;;;;;;;5.35;2.15;;;12.10;91.30;;;;;;5085859;28;20023;-78
2021/11/10 11:32:46;;;;;;;5.28;2.42;;;12.00;90.50;;;;;;5085101;28;20035;-78
2021/11/10 11:35:26;;;;;;;4.82;1.70;;;12.00;90.90;;;;;;5085167;28;20032;-77
2021/11/10 11:37:54;;;;;;;4.55;1.90;;;12.10;90.80;;;;;;5078065;28;20029;-78
2021/11/10 11:40:22;;;;;;;4.00;1.58;;;12.10;90.70;;;;;;5066564;28;20020;-77
2021/11/10 11:42:49;;;;;;;6.63;2.42;;;12.30;91.00;;;;;;5068182;28;20032;-78
2021/11/10 11:45:17;;;;;;;13.90;1.90;;;12.40;90.60;;;;;;5067808;28;20024;-78
2021/11/10 11:47:48;;;;;;;5.00;2.28;;;12.60;90.50;;;;;;5073002;28;20028;-78
2021/11/10 11:50:15;;;;;;;5.93;1.83;;;12.70;90.10;;;;;;5087559;28;20020;-78
2021/11/10 11:52:44;;;;;;;5.32;2.03;;;12.70;90.30;;;;;;5088520;28;20088;-77
2021/11/10 11:55:22;;;;;;;8.95;2.03;;;12.80;90.30;;;;;;5088022;28;20081;-77
2021/11/10 11:58:03;;;;;;;3.17;1.63;;;12.80;90.00;;;;;;5080810;28;20059;-77
2021/11/10 12:00:55;;;;;;;4.63;1.60;;;12.90;90.20;;;;;;5078546;28;20131;-77
2021/11/10 12:03:27;;;;;;;4.03;1.92;;;12.90;90.30;;;;;;5087975;28;20035;-78
2021/11/10 12:06:04;;;;;;;5.50;2.13;;;12.70;90.30;;;;;;5087425;28;20032;-78
2021/11/10 12:08:40;;;;;;;4.63;1.70;;;12.60;90.70;;;;;;5087355;28;20048;-77
2021/11/10 12:11:35;;;;;;;11.80;2.58;;;12.50;90.60;;;;;;5076918;28;20028;-78
2021/11/10 12:14:22;;;;;;;4.70;2.00;;;12.50;90.60;;;;;;5070506;28;20117;-78
2021/11/10 12:17:02;;;;;;;3.20;1.70;;;12.70;90.10;;;;;;5067745;28;20527;-78
2021/11/10 12:19:56;;;;;;;4.85;1.98;;;12.90;90.60;;;;;;5062515;28;20036;-77
2021/11/10 12:22:23;;;;;;;6.13;2.17;;;12.80;89.50;;;;;;5053455;28;20040;-77
2021/11/10 12:24:54;;;;;;;18.27;10.88;;;12.80;89.20;;;;;;5081924;28;20732;-77
2021/11/10 12:27:27;;;;;;;9.98;2.65;;;13.00;90.00;;;;;;5066244;28;20063;-77
2021/11/10 12:29:57;;;;;;;4.10;1.73;;;13.20;90.20;;;;;;5067509;28;20040;-78
2021/11/10 12:32:28;;;;;;;4.78;2.03;;;13.20;90.00;;;;;;5086112;28;20638;-78
2021/11/10 12:34:55;;;;;;;7.95;4.32;;;13.30;89.40;;;;;;5085190;28;20093;-78
2021/11/10 12:37:35;;;;;;;14.05;6.32;;;13.50;89.90;;;;;;5085379;28;20064;-77
2021/11/10 12:40:16;;;;;;;4.43;1.80;;;13.40;88.20;;;;;;5081019;28;20051;-77
2021/11/10 12:42:53;;;;;;;21.45;7.93;;;13.20;88.00;;;;;;5066253;28;20032;-77
2021/11/10 12:45:36;;;;;;;10.95;4.63;;;13.30;88.80;;;;;;5066783;28;20020;-78
2021/11/10 12:48:28;;;;;;;13.05;5.13;;;13.40;89.40;;;;;;5066880;28;20036;-77
2021/11/10 12:51:11;;;;;;;4.28;2.38;;;13.30;89.40;;;;;;5075795;28;20149;-78
2021/11/10 12:53:42;;;;;;;5.60;1.85;;;13.30;89.30;;;;;;5086711;28;20036;-78
2021/11/10 12:56:09;;;;;;;7.60;3.38;;;13.30;88.70;;;;;;5086169;28;20044;-78
2021/11/10 12:58:39;;;;;;;8.20;6.07;;;13.30;89.50;;;;;;5086671;28;20057;-78
2021/11/10 13:01:10;;;;;;;4.28;2.20;;;13.50;88.10;;;;;;5073581;28;20364;-78